Chiang Mai, Thailand

10:45 AM ICT on September 18, 2014 (GMT +0700)
ThaiWx Station | Change Station
CLOSE
Current Station
Personal Weather Station
Location: Chiang Mai, Pa Daet
Elevation: 1007 ft
Nearby Weather Stations

Elev 1007 ft 18.77 °N, 98.97 °E | Updated 4 minutes ago

Mostly Cloudy
Mostly Cloudy
83.5 °F
Feels Like 90 °F
N
0.0
Wind Variable Wind from ESE
Gusts 3.6 mph

Today
High -- | Low -- °F
--% Chance of Precip.
Yesterday
High -- | Low -- °F
Precip. -- in
6:12 AM 6:24 PM
Waning Crescent, 30% visible
Pressure 29.89 in
Visibility 6.2 miles
Clouds Mostly Cloudy 3500 ft
Heat Index 90 °F
Dew Point 74 °F
Humidity 72%
Rainfall 0.00 in
Snow Depth Not available.
UV 7 out of 12
Pollen Not available.
Air Quality Not available.
Flu Activity Not available.
METAR VTCC 180330Z 20003KT 9999 BKN035 28/21 Q1012 A2989 NOSIG

More Conditions Fewer Conditions

Pressure 29.89 in
Visibility 6.2 miles
Clouds Mostly Cloudy 3500 ft
Heat Index 90 °F
Dew Point 74 °F
Humidity 72%
Rainfall 0.00 in
Snow Depth Not available.
UV 7 out of 12
Pollen Not available.
Air Quality Not available.
Flu Activity Not available.
METAR VTCC 180330Z 20003KT 9999 BKN035 28/21 Q1012 A2989 NOSIG

More Conditions Fewer Conditions

10-Day Weather Forecast

Almanac

Astronomy

Sep. 18, 2014 Rise Set
Actual Time 6:12 AM ICT 6:24 PM ICT
Civil Twilight 5:50 AM ICT 6:46 PM ICT
Nautical Twilight 5:24 AM ICT 7:11 PM ICT
Astronomical Twilight 4:59 AM ICT 7:37 PM ICT
Moon 1:10 AM ICT 2:22 PM ICT
Length of Visible Light 12h 55m
Length of Day
12h 12m
Tomorrow will be 1m 3s shorter.
Waning Crescent, 30% of the Moon is Illuminated
Sep 17
Waning Crescent
Sep 24
New
Oct 1
First Quarter
Oct 8
Full
Oct 15
Last Quarter

Yesterday's Extremes

Country Highs Country Lows

Community

WunderPhotos

Upload Photos

1,754,283 photos uploaded!

Nearby

Snow Depth

Not available.

Earthquake Activity

City Distance Mag. Time & Date
No recent earthquake activity has been reported nearby.
Minimum magnitude displayed is 2.5.

Coastal Water Temperatures

Place Temperature
No Stations Reporting

Nearby Weather Stations